Time;durP1;ratioP1;P1;durP2;ratioP2;P2;SDS_P1;SDS_P2;PMS_P1;PMS_P2;Temp;Humidity;BMP_temperature;BMP_pressure;BME280_temperature;BME280_humidity;BME280_pressure;Samples;Min_cycle;Max_cycle;Signal;HPM_P1;HPM_P2
2022/07/10 00:01:06;;;;;;;12.68;0.90;;;13.20;1.00;;;;;;5063873;28;20044;-26
2022/07/10 00:03:32;;;;;;;6.18;1.27;;;13.20;14.30;;;;;;5052797;28;20663;-26
2022/07/10 00:05:58;;;;;;;11.07;1.30;;;13.20;99.90;;;;;;5053989;28;20080;-26
2022/07/10 00:08:24;;;;;;;13.00;2.55;;;13.30;99.90;;;;;;5056765;28;20041;-26
2022/07/10 00:10:50;;;;;;;9.80;1.65;;;13.20;99.90;;;;;;5053929;28;20063;-26
2022/07/10 00:13:15;;;;;;;8.98;1.40;;;13.20;99.90;;;;;;5052765;28;20554;-26
2022/07/10 00:15:41;;;;;;;9.95;1.33;;;13.20;99.90;;;;;;5059214;28;20120;-26
2022/07/10 00:18:07;;;;;;;10.30;1.35;;;13.10;99.90;;;;;;5066901;28;20105;-26
2022/07/10 00:20:33;;;;;;;13.23;2.00;;;13.00;99.90;;;;;;5052776;28;20128;-26
2022/07/10 00:22:59;;;;;;;9.00;1.40;;;12.90;99.90;;;;;;5056619;28;20052;-26
2022/07/10 00:25:25;;;;;;;7.00;1.10;;;12.70;99.90;;;;;;5066347;28;20542;-25
2022/07/10 00:27:50;;;;;;;12.57;1.63;;;12.60;99.90;;;;;;5053649;28;20041;-26
2022/07/10 00:30:16;;;;;;;12.38;2.25;;;12.60;99.90;;;;;;5051317;28;21331;-26
2022/07/10 00:32:42;;;;;;;13.07;1.70;;;12.70;1.00;;;;;;5052980;28;20119;-26
2022/07/10 00:35:08;;;;;;;12.07;1.38;;;12.70;1.00;;;;;;5052510;28;20049;-26
2022/07/10 00:37:34;;;;;;;10.30;1.38;;;12.80;1.00;;;;;;5052282;28;20053;-26
2022/07/10 00:40:00;;;;;;;15.93;1.90;;;12.90;1.00;;;;;;5065917;28;20041;-26
2022/07/10 00:42:27;;;;;;;14.32;2.28;;;13.00;1.00;;;;;;5054175;28;20048;-26
2022/07/10 00:44:53;;;;;;;9.23;1.50;;;13.10;10.00;;;;;;5052834;28;20045;-26
2022/07/10 00:47:19;;;;;;;8.63;1.27;;;13.20;1.30;;;;;;5071533;28;20049;-26
2022/07/10 00:49:48;;;;;;;11.80;1.63;;;13.20;1.00;;;;;;5072086;28;20044;-26
2022/07/10 00:52:18;;;;;;;14.15;2.20;;;13.20;1.00;;;;;;5065881;28;20465;-26
2022/07/10 00:54:45;;;;;;;8.88;1.35;;;13.30;1.00;;;;;;5057544;28;20041;-26
2022/07/10 00:57:14;;;;;;;9.05;1.08;;;13.30;1.00;;;;;;5057131;28;20037;-26
2022/07/10 00:59:40;;;;;;;13.13;1.30;;;13.30;99.90;;;;;;5057173;28;20045;-26
2022/07/10 01:02:06;;;;;;;8.27;1.35;;;13.20;99.90;;;;;;5054846;28;20051;-26
2022/07/10 01:04:32;;;;;;;9.57;1.45;;;13.10;99.90;;;;;;5057180;28;20462;-26
2022/07/10 01:06:59;;;;;;;9.73;1.55;;;13.10;99.90;;;;;;5057090;28;20087;-26
2022/07/10 01:09:25;;;;;;;9.27;1.38;;;13.00;83.70;;;;;;5057407;28;20152;-27
2022/07/10 01:11:51;;;;;;;7.00;1.15;;;13.00;23.10;;;;;;5056523;28;20048;-26
2022/07/10 01:14:17;;;;;;;6.07;0.80;;;12.90;1.00;;;;;;5040814;28;20049;-26
2022/07/10 01:16:43;;;;;;;4.18;0.80;;;12.90;1.00;;;;;;5055910;28;20128;-26
2022/07/10 01:19:09;;;;;;;10.43;1.98;;;12.90;1.00;;;;;;5056713;28;20127;-26
2022/07/10 01:21:36;;;;;;;5.40;0.98;;;12.80;1.00;;;;;;5063864;28;20040;-27
2022/07/10 01:24:09;;;;;;;9.82;2.50;;;12.80;1.00;;;;;;5063934;28;20044;-26
2022/07/10 01:26:36;;;;;;;4.70;1.10;;;12.70;1.00;;;;;;5070315;28;20087;-26
2022/07/10 01:29:04;;;;;;;6.35;0.70;;;12.70;1.00;;;;;;5056596;28;20045;-26
2022/07/10 01:31:31;;;;;;;8.73;1.02;;;12.70;1.00;;;;;;5056090;28;20045;-26
2022/07/10 01:33:58;;;;;;;12.40;1.83;;;12.70;1.00;;;;;;5055967;28;20056;-26
2022/07/10 01:36:24;;;;;;;11.43;2.08;;;12.70;1.00;;;;;;5056861;28;20182;-26
2022/07/10 01:38:54;;;;;;;7.18;1.20;;;12.70;1.00;;;;;;5055866;28;20122;-26
2022/07/10 01:41:20;;;;;;;8.43;1.17;;;12.70;1.00;;;;;;5056359;28;20095;-26
2022/07/10 01:43:47;;;;;;;7.72;0.68;;;12.60;1.00;;;;;;5056334;28;20580;-26
2022/07/10 01:46:14;;;;;;;9.93;2.10;;;12.60;1.00;;;;;;5062224;28;20120;-26
2022/07/10 01:48:40;;;;;;;12.60;1.35;;;12.60;1.00;;;;;;5061783;28;20045;-26
2022/07/10 01:51:06;;;;;;;8.32;1.77;;;12.60;1.00;;;;;;5037765;28;20045;-26
2022/07/10 01:53:32;;;;;;;6.07;1.20;;;12.70;1.00;;;;;;5056184;28;20128;-26
2022/07/10 01:56:00;;;;;;;8.05;1.00;;;12.70;1.00;;;;;;5056557;28;21849;-26
2022/07/10 01:58:26;;;;;;;8.32;1.30;;;12.60;12.10;;;;;;5054549;28;20037;-26
2022/07/10 02:00:51;;;;;;;10.70;1.20;;;12.70;51.40;;;;;;5054364;28;20048;-26
2022/07/10 02:06:01;;;;;;;8.60;1.40;;;12.70;57.50;;;;;;5054473;28;20080;-26
2022/07/10 02:08:27;;;;;;;8.90;1.27;;;12.80;16.60;;;;;;5058987;28;20129;-26
2022/07/10 02:10:53;;;;;;;8.82;1.45;;;12.80;1.00;;;;;;5055168;28;20041;-27
2022/07/10 02:13:20;;;;;;;6.63;1.08;;;12.80;1.00;;;;;;5054620;28;20049;-26
2022/07/10 02:15:49;;;;;;;8.18;1.52;;;12.80;1.00;;;;;;5055732;28;20055;-26
2022/07/10 02:18:15;;;;;;;11.65;1.25;;;12.70;1.00;;;;;;5055123;28;20092;-26
2022/07/10 02:20:41;;;;;;;11.88;2.25;;;12.70;1.00;;;;;;5056222;28;20122;-25
2022/07/10 02:23:07;;;;;;;6.63;1.30;;;12.70;1.00;;;;;;5055576;28;20045;-26
2022/07/10 02:25:33;;;;;;;17.45;1.65;;;12.70;1.00;;;;;;5053760;28;20091;-26
2022/07/10 02:27:59;;;;;;;9.18;1.23;;;12.70;1.00;;;;;;5055475;28;20060;-26
2022/07/10 02:30:25;;;;;;;6.40;1.15;;;12.70;1.00;;;;;;5056526;28;20044;-26
2022/07/10 02:32:51;;;;;;;14.93;2.50;;;12.70;1.00;;;;;;5054850;28;20102;-26
2022/07/10 02:35:17;;;;;;;6.45;1.25;;;12.70;1.00;;;;;;5053555;28;20103;-26
2022/07/10 02:37:43;;;;;;;9.50;1.55;;;12.80;1.00;;;;;;5056117;28;20045;-26
2022/07/10 02:40:08;;;;;;;6.70;1.05;;;12.80;1.00;;;;;;5055251;28;20051;-26
2022/07/10 02:42:34;;;;;;;16.23;1.63;;;12.90;1.00;;;;;;5055287;28;20440;-26
2022/07/10 02:45:00;;;;;;;11.48;1.40;;;13.00;1.00;;;;;;5054600;28;20128;-26
2022/07/10 02:47:26;;;;;;;9.20;1.40;;;13.00;1.00;;;;;;5055116;28;20049;-26
2022/07/10 02:49:51;;;;;;;8.77;1.05;;;13.00;1.00;;;;;;5054653;28;20048;-26
2022/07/10 02:52:17;;;;;;;10.88;2.50;;;13.00;1.00;;;;;;5055376;28;20040;-26
2022/07/10 02:54:43;;;;;;;10.13;1.20;;;13.10;7.50;;;;;;5054409;28;20045;-26
2022/07/10 02:57:08;;;;;;;14.70;2.92;;;13.10;26.80;;;;;;5054157;28;20056;-26
2022/07/10 02:59:34;;;;;;;11.73;1.58;;;13.30;6.70;;;;;;5054885;28;20076;-26
2022/07/10 03:02:00;;;;;;;12.02;1.30;;;13.40;1.00;;;;;;5054649;28;20052;-26
2022/07/10 03:04:26;;;;;;;12.15;2.22;;;13.50;1.00;;;;;;5054158;28;20490;-26
2022/07/10 03:06:52;;;;;;;7.93;1.35;;;13.60;1.00;;;;;;5047498;28;20053;-26
2022/07/10 03:09:18;;;;;;;13.30;2.08;;;13.60;1.00;;;;;;5062896;28;20041;-26
2022/07/10 03:11:44;;;;;;;6.38;1.17;;;13.70;1.00;;;;;;5053647;28;20040;-27
2022/07/10 03:14:09;;;;;;;7.82;1.00;;;13.80;1.00;;;;;;5055358;28;20148;-26
2022/07/10 03:16:35;;;;;;;8.95;1.25;;;13.80;1.00;;;;;;5054657;28;20061;-25
2022/07/10 03:19:01;;;;;;;9.50;1.05;;;13.80;1.00;;;;;;5054345;28;20092;-26
2022/07/10 03:21:27;;;;;;;9.02;1.40;;;13.90;1.00;;;;;;5054127;28;20045;-26
2022/07/10 03:23:52;;;;;;;6.88;1.80;;;14.00;1.00;;;;;;5055619;28;20125;-27
2022/07/10 03:26:18;;;;;;;10.98;1.70;;;14.00;1.00;;;;;;5053666;28;20049;-26
2022/07/10 03:28:44;;;;;;;15.30;1.83;;;14.00;1.00;;;;;;5053437;28;20073;-26
2022/07/10 03:31:09;;;;;;;6.35;1.38;;;14.10;1.00;;;;;;5054179;28;20045;-26
2022/07/10 03:33:35;;;;;;;8.52;1.45;;;14.20;1.00;;;;;;5054177;28;20501;-26
2022/07/10 03:36:03;;;;;;;10.00;1.45;;;14.20;1.00;;;;;;5053230;28;20048;-26
2022/07/10 03:38:29;;;;;;;10.07;1.48;;;14.30;1.00;;;;;;5053549;28;20139;-26
2022/07/10 03:40:55;;;;;;;9.85;1.30;;;14.30;1.00;;;;;;5052346;28;20131;-26
2022/07/10 03:43:20;;;;;;;10.90;2.72;;;14.30;16.80;;;;;;5052518;28;20041;-26
2022/07/10 03:45:46;;;;;;;9.43;1.85;;;14.30;67.40;;;;;;5053577;28;20483;-26
2022/07/10 03:48:12;;;;;;;9.05;1.15;;;14.30;99.90;;;;;;5053405;28;20379;-26
2022/07/10 03:50:37;;;;;;;10.73;2.35;;;14.30;99.90;;;;;;5053850;28;20044;-26
2022/07/10 03:53:03;;;;;;;9.27;1.67;;;14.30;99.90;;;;;;5059874;28;20090;-26
2022/07/10 03:55:29;;;;;;;10.13;1.40;;;14.20;99.90;;;;;;5055690;28;20045;-26
2022/07/10 03:57:56;;;;;;;12.93;1.80;;;14.30;99.90;;;;;;5053357;28;20091;-26
2022/07/10 04:00:23;;;;;;;6.97;1.40;;;14.30;99.90;;;;;;5054352;28;20425;-26
2022/07/10 04:03:04;;;;;;;11.20;1.67;;;14.30;99.90;;;;;;5052954;28;20384;-26
2022/07/10 04:05:30;;;;;;;8.70;1.70;;;14.30;99.90;;;;;;5054204;28;20134;-26
2022/07/10 04:07:57;;;;;;;11.25;1.83;;;14.30;99.90;;;;;;5053168;28;20049;-26
2022/07/10 04:10:24;;;;;;;17.63;2.55;;;14.30;99.90;;;;;;5055782;28;20051;-26
2022/07/10 04:12:50;;;;;;;9.68;1.38;;;14.40;1.00;;;;;;5053111;28;20498;-26
2022/07/10 04:15:16;;;;;;;11.38;1.45;;;14.40;1.00;;;;;;5053325;28;20045;-27
2022/07/10 04:17:42;;;;;;;11.35;1.35;;;14.50;1.00;;;;;;5054559;28;20049;-26
2022/07/10 04:20:09;;;;;;;14.43;1.60;;;14.50;1.00;;;;;;5055080;28;20536;-26
2022/07/10 04:22:34;;;;;;;10.65;2.33;;;14.60;99.90;;;;;;5074061;28;20051;-28
2022/07/10 04:25:01;;;;;;;7.13;1.48;;;14.60;99.90;;;;;;5053403;28;20390;-26
2022/07/10 04:27:27;;;;;;;13.00;1.60;;;14.70;99.90;;;;;;5059857;28;20049;-26
2022/07/10 04:29:52;;;;;;;8.65;1.30;;;14.70;99.90;;;;;;5039568;28;20052;-26
2022/07/10 04:32:18;;;;;;;12.73;1.52;;;14.70;99.90;;;;;;5058937;28;20052;-26
2022/07/10 04:34:44;;;;;;;12.52;2.30;;;14.70;99.90;;;;;;5059175;28;20056;-26
2022/07/10 04:37:10;;;;;;;13.98;2.58;;;14.70;99.90;;;;;;5060517;28;20399;-26
2022/07/10 04:39:37;;;;;;;14.13;3.00;;;14.70;99.90;;;;;;5058332;28;20044;-26
2022/07/10 04:42:04;;;;;;;15.32;2.17;;;14.70;99.90;;;;;;5058853;28;20056;-26
2022/07/10 04:44:30;;;;;;;10.70;1.17;;;14.70;99.90;;;;;;5059711;28;20048;-27
2022/07/10 04:46:56;;;;;;;12.00;2.35;;;14.80;60.50;;;;;;5059047;28;20061;-27
2022/07/10 04:49:22;;;;;;;7.22;1.25;;;14.80;6.70;;;;;;5061670;28;20103;-26
2022/07/10 04:51:48;;;;;;;10.50;1.45;;;14.80;52.60;;;;;;5072748;28;20068;-26
2022/07/10 04:54:14;;;;;;;8.10;1.30;;;14.70;76.90;;;;;;5058954;28;20049;-26
2022/07/10 04:56:40;;;;;;;10.13;1.73;;;14.70;99.30;;;;;;5059301;28;20474;-26
2022/07/10 04:59:06;;;;;;;9.63;1.25;;;14.70;99.90;;;;;;5059597;28;20045;-27
2022/07/10 05:01:31;;;;;;;7.45;2.40;;;14.70;99.90;;;;;;5058047;28;20095;-26
2022/07/10 05:03:57;;;;;;;12.43;1.40;;;14.70;99.90;;;;;;5058456;28;20044;-26
2022/07/10 05:06:23;;;;;;;12.27;1.98;;;14.70;99.90;;;;;;5058491;28;20117;-26
2022/07/10 05:08:49;;;;;;;8.02;1.30;;;14.80;99.90;;;;;;5062898;28;20048;-26
2022/07/10 05:11:15;;;;;;;10.23;1.30;;;14.70;99.90;;;;;;5059680;28;20048;-26
2022/07/10 05:13:45;;;;;;;11.38;1.67;;;14.70;99.90;;;;;;5056987;28;20405;-26
2022/07/10 05:16:12;;;;;;;7.82;1.48;;;14.80;99.90;;;;;;5058761;28;20126;-26
2022/07/10 05:18:38;;;;;;;9.10;1.60;;;14.80;99.90;;;;;;5058221;28;20087;-26
2022/07/10 05:21:06;;;;;;;7.72;1.45;;;14.90;99.90;;;;;;5062454;28;20102;-26
2022/07/10 05:23:32;;;;;;;9.80;1.35;;;14.90;99.90;;;;;;5059211;28;20528;-26
2022/07/10 05:25:57;;;;;;;14.18;1.85;;;14.90;99.90;;;;;;5059149;28;20072;-26
2022/07/10 05:28:23;;;;;;;8.90;1.42;;;14.80;1.00;;;;;;5058801;28;20099;-27
2022/07/10 05:30:49;;;;;;;7.47;1.25;;;15.00;1.00;;;;;;5059918;28;20049;-26
2022/07/10 05:33:18;;;;;;;8.07;1.50;;;15.00;1.00;;;;;;5059899;28;20120;-26
2022/07/10 05:35:43;;;;;;;8.57;2.10;;;15.00;1.00;;;;;;5059586;28;20080;-26
2022/07/10 05:38:09;;;;;;;8.55;1.20;;;15.00;1.00;;;;;;5055809;28;20099;-26
2022/07/10 05:40:35;;;;;;;8.80;2.33;;;15.00;99.90;;;;;;5056835;28;20041;-26
2022/07/10 05:43:01;;;;;;;8.40;1.25;;;15.00;99.90;;;;;;5054617;28;20048;-26
2022/07/10 05:45:27;;;;;;;11.65;1.50;;;15.00;99.90;;;;;;5056333;28;20368;-26
2022/07/10 05:47:53;;;;;;;8.98;1.67;;;15.00;99.90;;;;;;5055792;28;20076;-26
2022/07/10 05:50:19;;;;;;;8.98;1.50;;;14.90;99.90;;;;;;5055253;28;20455;-26
2022/07/10 05:52:44;;;;;;;10.88;1.10;;;14.80;1.00;;;;;;5056507;28;20037;-26
2022/07/10 05:55:10;;;;;;;11.18;2.13;;;14.80;1.00;;;;;;5055366;28;20063;-26
2022/07/10 05:57:36;;;;;;;8.13;1.27;;;14.80;1.00;;;;;;5055556;28;20433;-26
2022/07/10 06:00:06;;;;;;;10.23;1.52;;;14.80;1.00;;;;;;5053930;28;20098;-26
2022/07/10 06:02:31;;;;;;;10.95;1.38;;;14.80;1.00;;;;;;5055815;28;20048;-26
2022/07/10 06:04:57;;;;;;;9.40;1.55;;;14.80;63.80;;;;;;5056515;28;20044;-26
2022/07/10 06:07:23;;;;;;;9.95;1.80;;;14.90;99.90;;;;;;5055831;28;20135;-26
2022/07/10 06:09:49;;;;;;;7.97;2.03;;;14.90;99.90;;;;;;5058852;28;20044;-26
2022/07/10 06:12:15;;;;;;;8.20;1.25;;;14.90;99.90;;;;;;5055913;28;20114;-26
2022/07/10 06:14:41;;;;;;;6.07;1.13;;;15.00;99.90;;;;;;5056030;28;20044;-26
2022/07/10 06:17:07;;;;;;;9.27;1.90;;;15.20;99.90;;;;;;5055380;28;20064;-27
2022/07/10 06:19:33;;;;;;;8.82;1.42;;;15.30;99.90;;;;;;5058034;28;20049;-26
2022/07/10 06:24:43;;;;;;;8.35;1.38;;;15.40;29.80;;;;;;5055629;28;20056;-26
2022/07/10 06:27:09;;;;;;;5.32;1.17;;;15.40;1.00;;;;;;5054219;28;20052;-26
2022/07/10 06:29:35;;;;;;;6.72;1.92;;;15.40;1.00;;;;;;5053600;28;20041;-26
2022/07/10 06:32:01;;;;;;;8.20;0.88;;;15.40;1.00;;;;;;5055422;28;20091;-26
2022/07/10 06:34:26;;;;;;;7.10;0.75;;;15.50;1.00;;;;;;5056976;28;20072;-26
2022/07/10 06:36:52;;;;;;;5.18;0.95;;;15.60;1.00;;;;;;5054772;28;20406;-26
2022/07/10 06:39:18;;;;;;;3.05;0.60;;;15.80;1.00;;;;;;5055312;28;20505;-26
2022/07/10 06:41:44;;;;;;;3.58;1.23;;;16.00;1.00;;;;;;5055232;28;20372;-26
2022/07/10 06:44:09;;;;;;;5.45;0.80;;;16.10;1.00;;;;;;5055374;28;20116;-26
2022/07/10 06:46:35;;;;;;;6.78;1.15;;;16.20;1.00;;;;;;5056018;28;20045;-26
2022/07/10 06:49:01;;;;;;;4.70;0.90;;;16.10;99.90;;;;;;5052703;28;20443;-26
2022/07/10 06:51:27;;;;;;;4.38;0.82;;;15.90;1.00;;;;;;5054465;28;20040;-26
2022/07/10 06:53:52;;;;;;;8.73;1.13;;;15.60;1.00;;;;;;5054561;28;20040;-26
2022/07/10 06:56:18;;;;;;;6.50;0.82;;;15.50;99.90;;;;;;5054797;28;20208;-26
2022/07/10 06:58:44;;;;;;;7.40;1.00;;;15.30;99.90;;;;;;5055210;28;20051;-26
2022/07/10 07:01:10;;;;;;;9.68;1.23;;;15.10;99.90;;;;;;5069926;28;20052;-26
2022/07/10 07:03:35;;;;;;;7.45;2.20;;;15.00;99.90;;;;;;5075357;28;20094;-26
2022/07/10 07:06:01;;;;;;;10.55;1.65;;;14.90;1.00;;;;;;5063983;28;20057;-25
2022/07/10 07:08:29;;;;;;;10.00;1.60;;;14.80;1.00;;;;;;5057399;28;20047;-26
2022/07/10 07:10:55;;;;;;;9.77;1.70;;;14.90;82.30;;;;;;5053531;28;20045;-26
2022/07/10 07:13:21;;;;;;;7.88;1.85;;;15.00;93.40;;;;;;5054623;28;20059;-27
2022/07/10 07:15:56;;;;;;;9.82;2.05;;;15.10;99.90;;;;;;5054518;28;20123;-26
2022/07/10 07:18:31;;;;;;;8.40;2.33;;;15.20;99.90;;;;;;5058659;28;20071;-27
2022/07/10 07:23:41;;;;;;;8.55;2.17;;;15.40;99.90;;;;;;5060104;28;20056;-26
2022/07/10 07:26:07;;;;;;;12.88;2.15;;;15.50;96.70;;;;;;5066708;28;20044;-26
2022/07/10 07:28:33;;;;;;;6.65;1.27;;;15.50;95.40;;;;;;5073397;28;20379;-26
2022/07/10 07:30:59;;;;;;;10.65;1.10;;;15.60;99.90;;;;;;5054665;28;20124;-26
2022/07/10 07:33:25;;;;;;;5.85;1.00;;;15.80;99.90;;;;;;5073055;28;20049;-27
2022/07/10 07:35:51;;;;;;;9.15;1.90;;;16.10;99.90;;;;;;5074148;28;20101;-27
2022/07/10 07:38:17;;;;;;;11.20;1.45;;;16.40;99.90;;;;;;5074123;28;20050;-26
2022/07/10 07:40:43;;;;;;;6.63;1.42;;;16.50;1.00;;;;;;5073125;28;20053;-27
2022/07/10 07:43:09;;;;;;;4.55;0.85;;;16.60;1.00;;;;;;5055097;28;20063;-26
2022/07/10 07:45:35;;;;;;;5.50;1.27;;;16.70;99.90;;;;;;5054322;28;20045;-27
2022/07/10 07:48:01;;;;;;;6.88;1.13;;;16.90;99.90;;;;;;5055127;28;20056;-27
2022/07/10 07:50:36;;;;;;;6.57;1.15;;;17.00;99.90;;;;;;5052831;28;20055;-27
2022/07/10 07:53:04;;;;;;;2.92;0.73;;;17.20;28.00;;;;;;5054806;28;20056;-26
2022/07/10 07:55:31;;;;;;;5.03;0.68;;;16.90;99.90;;;;;;5054711;28;20453;-26
2022/07/10 07:57:57;;;;;;;3.05;0.40;;;16.60;99.90;;;;;;5052698;28;20040;-26
2022/07/10 08:00:25;;;;;;;7.53;0.73;;;16.50;99.90;;;;;;5053388;28;20482;-26
2022/07/10 08:02:52;;;;;;;2.45;0.30;;;16.30;99.90;;;;;;5053634;28;20091;-26
2022/07/10 08:05:18;;;;;;;3.08;0.47;;;16.20;99.90;;;;;;5054926;28;20071;-27
2022/07/10 08:07:50;;;;;;;2.08;0.30;;;16.40;99.90;;;;;;5036230;28;20124;-26
2022/07/10 08:10:18;;;;;;;2.22;0.40;;;16.50;99.90;;;;;;5052835;28;20132;-26
2022/07/10 08:12:46;;;;;;;4.03;0.40;;;16.50;99.90;;;;;;5053683;28;20045;-26
2022/07/10 08:15:14;;;;;;;2.15;0.20;;;16.50;99.90;;;;;;5053671;28;20049;-26
2022/07/10 08:17:40;;;;;;;3.45;0.40;;;16.40;99.90;;;;;;5053379;28;20053;-26
2022/07/10 08:20:08;;;;;;;6.50;0.95;;;16.30;99.90;;;;;;5053463;28;20083;-26
2022/07/10 08:22:34;;;;;;;3.60;0.82;;;16.10;99.90;;;;;;5059493;28;20063;-26
2022/07/10 08:25:00;;;;;;;6.03;1.35;;;16.00;99.90;;;;;;5073507;28;20049;-26
2022/07/10 08:27:26;;;;;;;4.43;0.50;;;15.80;1.00;;;;;;5069246;28;20045;-26
2022/07/10 08:29:52;;;;;;;5.15;0.73;;;15.70;1.00;;;;;;5051460;28;20120;-26
2022/07/10 08:32:18;;;;;;;9.32;1.27;;;15.50;99.90;;;;;;5053781;28;20470;-26
2022/07/10 08:34:44;;;;;;;3.42;0.85;;;15.40;99.90;;;;;;5053518;28;20102;-26
2022/07/10 08:37:09;;;;;;;6.50;1.05;;;15.20;99.90;;;;;;5053453;28;20052;-26
2022/07/10 08:39:35;;;;;;;4.20;0.80;;;15.10;1.00;;;;;;5053261;28;20376;-26
2022/07/10 08:42:04;;;;;;;7.18;1.30;;;15.00;92.80;;;;;;5052189;28;20049;-26
2022/07/10 08:44:30;;;;;;;9.68;1.40;;;15.10;92.00;;;;;;5053859;28;20056;-26
2022/07/10 08:46:58;;;;;;;12.15;1.73;;;15.20;99.90;;;;;;5053370;28;20049;-26
2022/07/10 08:49:28;;;;;;;7.43;1.38;;;15.50;99.90;;;;;;5052671;28;20057;-28
2022/07/10 08:52:08;;;;;;;8.95;1.23;;;15.60;99.90;;;;;;5052987;28;20052;-26
2022/07/10 08:54:35;;;;;;;5.85;1.42;;;15.80;99.90;;;;;;5053293;28;20124;-26
2022/07/10 08:57:03;;;;;;;6.93;1.45;;;15.70;99.90;;;;;;5051948;28;20056;-26
2022/07/10 08:59:29;;;;;;;6.47;1.23;;;15.60;99.90;;;;;;5053755;28;20200;-26
2022/07/10 09:01:55;;;;;;;7.55;1.63;;;15.70;99.90;;;;;;5052612;28;20045;-27
2022/07/10 09:04:23;;;;;;;7.55;1.20;;;15.70;99.90;;;;;;5056120;28;20051;-26
2022/07/10 09:06:53;;;;;;;4.13;1.00;;;15.40;99.90;;;;;;5052977;28;20498;-27
2022/07/10 09:09:19;;;;;;;7.53;1.60;;;15.20;99.90;;;;;;5060181;28;20059;-25
2022/07/10 09:11:46;;;;;;;6.07;1.48;;;14.90;1.00;;;;;;5073816;28;20141;-24
2022/07/10 09:14:14;;;;;;;9.38;2.20;;;14.70;1.00;;;;;;5075024;28;20049;-24
2022/07/10 09:16:50;;;;;;;9.02;2.60;;;14.70;99.90;;;;;;5062655;28;20045;-23
2022/07/10 09:19:23;;;;;;;9.80;3.10;;;14.60;99.90;;;;;;5056792;28;20053;-22
2022/07/10 09:21:52;;;;;;;15.68;3.33;;;14.60;1.00;;;;;;5056815;28;20045;-22
2022/07/10 09:24:19;;;;;;;10.30;2.60;;;14.60;1.00;;;;;;5056969;28;20049;-22
2022/07/10 09:26:57;;;;;;;6.50;2.33;;;14.60;1.00;;;;;;5057377;28;20053;-22
2022/07/10 09:29:22;;;;;;;9.07;2.80;;;14.60;32.30;;;;;;5057962;28;20057;-21
2022/07/10 09:32:00;;;;;;;11.20;3.58;;;14.60;55.60;;;;;;5067136;28;20390;-21
2022/07/10 09:34:43;;;;;;;9.25;3.35;;;14.60;37.30;;;;;;5055659;28;20084;-22
2022/07/10 09:37:27;;;;;;;10.23;2.92;;;14.60;15.00;;;;;;5055321;28;20213;-22
2022/07/10 09:40:04;;;;;;;13.43;3.45;;;14.70;11.30;;;;;;5059707;28;20040;-23
2022/07/10 09:42:39;;;;;;;12.57;2.63;;;14.80;29.30;;;;;;5066144;28;20480;-22
2022/07/10 09:45:19;;;;;;;10.05;3.10;;;14.90;1.00;;;;;;5075472;28;20044;-23
2022/07/10 09:47:57;;;;;;;11.45;3.05;;;14.90;89.70;;;;;;5056936;28;20045;-22
2022/07/10 09:50:26;;;;;;;11.18;3.30;;;14.90;99.90;;;;;;5055647;28;20135;-25
2022/07/10 09:52:56;;;;;;;14.48;3.50;;;15.00;90.00;;;;;;5056197;28;20470;-26
2022/07/10 09:55:29;;;;;;;11.65;2.85;;;15.00;58.30;;;;;;5055736;28;20049;-26
2022/07/10 09:57:57;;;;;;;14.43;3.30;;;15.20;91.60;;;;;;5057230;28;20421;-24
2022/07/10 10:00:25;;;;;;;16.75;3.92;;;15.20;96.70;;;;;;5056065;28;20037;-24
2022/07/10 10:03:05;;;;;;;10.88;2.97;;;15.20;99.90;;;;;;5056006;28;20049;-25
2022/07/10 10:05:36;;;;;;;14.07;3.45;;;15.20;99.90;;;;;;5056322;28;20045;-24
2022/07/10 10:08:08;;;;;;;12.45;3.00;;;15.20;99.90;;;;;;5059190;28;20453;-24
2022/07/10 10:10:35;;;;;;;10.73;3.47;;;15.20;99.50;;;;;;5074609;28;20040;-23
2022/07/10 10:13:06;;;;;;;16.33;3.55;;;15.20;99.90;;;;;;5060935;28;20056;-24
2022/07/10 10:15:33;;;;;;;12.27;3.97;;;15.20;99.90;;;;;;5056394;28;20049;-24
2022/07/10 10:18:01;;;;;;;13.63;3.15;;;15.30;99.90;;;;;;5055998;28;20065;-24
2022/07/10 10:20:37;;;;;;;12.07;3.20;;;15.30;99.90;;;;;;5055582;28;20055;-24
2022/07/10 10:23:11;;;;;;;9.27;3.45;;;15.30;99.90;;;;;;5056559;28;20045;-23
2022/07/10 10:25:39;;;;;;;15.50;4.63;;;15.30;99.90;;;;;;5054442;28;20056;-23
2022/07/10 10:28:07;;;;;;;10.35;2.95;;;15.60;99.90;;;;;;5055532;28;20053;-23
2022/07/10 10:30:43;;;;;;;8.70;2.20;;;15.80;99.90;;;;;;5055426;28;20376;-23
2022/07/10 10:33:42;;;;;;;11.07;3.00;;;15.90;64.50;;;;;;5055693;28;20059;-23
2022/07/10 10:36:09;;;;;;;10.70;2.60;;;15.90;99.90;;;;;;5047377;28;20061;-22
2022/07/10 10:38:55;;;;;;;5.05;1.85;;;16.10;99.90;;;;;;5055384;28;20049;-23
2022/07/10 10:41:33;;;;;;;13.15;2.15;;;16.00;61.40;;;;;;5055587;28;20099;-22
2022/07/10 10:44:16;;;;;;;7.47;2.25;;;16.00;73.70;;;;;;5037505;28;20111;-23
2022/07/10 10:46:54;;;;;;;7.93;1.92;;;16.00;99.90;;;;;;5064254;28;20044;-23
2022/07/10 10:49:24;;;;;;;8.40;1.80;;;16.20;45.20;;;;;;5075677;28;20051;-23
2022/07/10 10:51:56;;;;;;;7.15;2.50;;;16.40;1.00;;;;;;5057566;28;20041;-23
2022/07/10 10:54:24;;;;;;;9.95;2.10;;;16.80;99.90;;;;;;5054077;28;20368;-23
2022/07/10 10:57:13;;;;;;;7.40;2.00;;;17.00;99.90;;;;;;5070681;28;20498;-23
2022/07/10 10:59:56;;;;;;;4.78;2.08;;;17.30;1.00;;;;;;5074924;28;20399;-24
2022/07/10 11:02:25;;;;;;;;;;;17.60;1.00;;;;;;5070312;28;20120;-24
2022/07/10 11:05:18;;;;;;;7.65;1.70;;;17.60;99.90;;;;;;5055146;28;20370;-24
2022/07/10 11:08:05;;;;;;;6.03;2.03;;;17.40;1.00;;;;;;5039943;28;20159;-24
2022/07/10 11:10:44;;;;;;;10.85;1.88;;;16.70;1.00;;;;;;5053742;28;20032;-25
2022/07/10 11:13:15;;;;;;;6.72;1.48;;;16.40;99.90;;;;;;5061595;28;20040;-24
2022/07/10 11:15:44;;;;;;;8.90;1.48;;;16.40;13.70;;;;;;5055182;28;20052;-24
2022/07/10 11:18:12;;;;;;;10.55;1.83;;;16.50;1.00;;;;;;5066043;28;20518;-25
2022/07/10 11:20:42;;;;;;;9.27;1.65;;;16.70;99.90;;;;;;5057666;28;20399;-24
2022/07/10 11:23:25;;;;;;;9.18;1.75;;;16.90;1.00;;;;;;5068338;28;20056;-24
2022/07/10 11:26:01;;;;;;;11.65;1.88;;;16.80;99.90;;;;;;5071377;28;20054;-24
2022/07/10 11:28:55;;;;;;;6.15;1.70;;;16.50;1.00;;;;;;5054422;28;20487;-23
2022/07/10 11:31:26;;;;;;;6.05;1.52;;;16.30;99.90;;;;;;5073333;28;20071;-23
2022/07/10 11:33:56;;;;;;;6.15;1.90;;;16.40;1.00;;;;;;5075129;28;20378;-23
2022/07/10 11:36:26;;;;;;;7.47;1.55;;;16.60;99.90;;;;;;5043138;28;20454;-24
2022/07/10 11:39:04;;;;;;;10.48;1.83;;;16.70;99.90;;;;;;5054703;28;20045;-24
2022/07/10 11:41:41;;;;;;;8.55;2.15;;;16.70;1.00;;;;;;5054407;28;20559;-24
2022/07/10 11:44:14;;;;;;;11.50;2.55;;;16.60;67.10;;;;;;5054401;28;20119;-24
2022/07/10 11:46:42;;;;;;;8.38;1.88;;;16.60;99.90;;;;;;5052385;28;20045;-24
2022/07/10 11:49:08;;;;;;;10.25;2.22;;;16.50;99.90;;;;;;5052646;28;20078;-24
2022/07/10 11:51:41;;;;;;;9.43;2.13;;;16.50;99.90;;;;;;5055015;28;20049;-24
2022/07/10 11:54:11;;;;;;;;;;;16.30;99.90;;;;;;5066354;28;20048;-24
2022/07/10 11:56:41;;;;;;;6.68;2.20;;;16.10;99.90;;;;;;5066499;28;19921;-24
2022/07/10 11:59:11;;;;;;;7.72;1.88;;;16.30;1.00;;;;;;5053753;28;20045;-24
2022/07/10 12:01:47;;;;;;;5.82;1.92;;;16.40;1.00;;;;;;5052032;28;20036;-24
2022/07/10 12:04:16;;;;;;;10.13;2.40;;;16.70;1.00;;;;;;5052280;28;20509;-24
2022/07/10 12:06:46;;;;;;;11.38;2.35;;;16.90;1.00;;;;;;5053272;28;20134;-24
2022/07/10 12:09:14;;;;;;;6.60;2.33;;;17.00;1.00;;;;;;5056936;28;20072;-24
2022/07/10 12:11:41;;;;;;;5.35;1.90;;;17.00;99.90;;;;;;5052570;28;20491;-26
2022/07/10 12:14:20;;;;;;;6.82;3.08;;;17.00;99.90;;;;;;5072689;28;20052;-24
2022/07/10 12:16:53;;;;;;;5.90;2.22;;;17.00;99.90;;;;;;5073810;28;20115;-24
2022/07/10 12:19:33;;;;;;;9.25;1.75;;;17.20;99.90;;;;;;5055530;28;20052;-25
2022/07/10 12:22:00;;;;;;;9.68;1.60;;;17.40;99.90;;;;;;5052681;28;20167;-25
2022/07/10 12:24:26;;;;;;;6.07;1.83;;;17.50;1.00;;;;;;5053505;28;20044;-25
2022/07/10 12:26:57;;;;;;;7.47;1.70;;;17.50;99.90;;;;;;5051887;28;20479;-25
2022/07/10 12:29:25;;;;;;;8.30;1.45;;;17.30;99.90;;;;;;5052516;28;20454;-24
2022/07/10 12:31:55;;;;;;;7.80;2.40;;;16.90;99.90;;;;;;5057441;28;20098;-25
2022/07/10 12:34:37;;;;;;;2.95;1.20;;;16.60;1.00;;;;;;5059824;28;20041;-24
2022/07/10 12:37:12;;;;;;;6.07;1.40;;;16.40;1.00;;;;;;5053403;28;20049;-25
2022/07/10 12:39:56;;;;;;;7.20;1.80;;;16.40;1.00;;;;;;5052471;28;20063;-25
2022/07/10 12:42:32;;;;;;;7.15;1.77;;;16.50;99.90;;;;;;5052937;28;20036;-25
2022/07/10 12:45:15;;;;;;;10.55;2.22;;;16.60;1.00;;;;;;5053807;28;20095;-25
2022/07/10 12:47:48;;;;;;;7.65;2.00;;;16.50;99.90;;;;;;5054872;28;20063;-26
2022/07/10 12:50:18;;;;;;;6.60;2.13;;;16.30;99.90;;;;;;5068515;28;20501;-25
2022/07/10 12:52:44;;;;;;;10.93;2.67;;;16.00;1.00;;;;;;5057274;28;20494;-25
2022/07/10 12:55:18;;;;;;;9.07;2.65;;;15.90;1.00;;;;;;5067818;28;20121;-25
2022/07/10 12:57:50;;;;;;;8.32;2.42;;;15.80;99.90;;;;;;5077035;28;20513;-25
2022/07/10 13:00:19;;;;;;;10.63;2.80;;;15.80;99.90;;;;;;5077193;28;20049;-25
2022/07/10 13:02:50;;;;;;;9.70;3.45;;;15.80;99.90;;;;;;5076897;28;20052;-24